^^
Meteo Knjazevac Station Historical Data
Daily Summary for January 24, 2021 Units:  English    Metric   Both
Daily Weekly Monthly Yearly Custom
  High: Low: Average:
Temperature: 41.5 °F 32 °F 36 °F
Dew Point: 40.5 °F 31.8 °F 35.6 °F
Humidity: 99% 96% 98%
Wind Speed: 3mph 0mph 1.1mph
Wind Gust: 6mph - -
Wind- - West
Pressure: 30.37 in 30.32 in -
Precipitation: 0.00 in    
Historical Graphs
 
 
Tabular Data for January 24, 2021
Time Temperature Dew Point Pressure Wind Wind Speed Wind Gust Humidity Rainfall Rate (Hourly) solar Conditions
00:00 41.5 °F 40.5 °F 30.32 in SW 1 mph 2 mph 96% 0.00 in 0 W/m2
00:10 41.5 °F 40.5 °F 30.32 in SW 1 mph 3 mph 96% 0.00 in 0 W/m2
00:20 41.2 °F 40.1 °F 30.32 in WSW 1 mph 3 mph 96% 0.00 in 0 W/m2
00:30 41 °F 39.9 °F 30.32 in South 1 mph 3 mph 96% 0.00 in 0 W/m2
00:40 40.6 °F 39.6 °F 30.32 in South 1 mph 3 mph 96% 0.00 in 0 W/m2
00:50 40.3 °F 39.2 °F 30.32 in SW 1 mph 3 mph 96% 0.00 in 0 W/m2
01:00 40.1 °F 39.6 °F 30.32 in SSW 2 mph 3 mph 98% 0.00 in 0 W/m2
01:10 39.7 °F 39.2 °F 30.32 in WSW 1 mph 4 mph 98% 0.00 in 0 W/m2
01:20 39.6 °F 39 °F 30.33 in WSW 2 mph 4 mph 98% 0.00 in 0 W/m2
01:30 39.4 °F 38.9 °F 30.33 in SW 2 mph 4 mph 98% 0.00 in 0 W/m2
01:40 39.2 °F 38.7 °F 30.33 in SW 1 mph 3 mph 98% 0.00 in 0 W/m2
01:50 39 °F 38.5 °F 30.33 in West 2 mph 3 mph 98% 0.00 in 0 W/m2
02:00 38.8 °F 38.3 °F 30.33 in WSW 2 mph 3 mph 98% 0.00 in 0 W/m2
02:10 38.7 °F 38.1 °F 30.34 in WSW 2 mph 3 mph 98% 0.00 in 0 W/m2
02:20 38.7 °F 38.1 °F 30.34 in West 2 mph 3 mph 98% 0.00 in 0 W/m2
02:30 38.5 °F 38 °F 30.33 in West 1 mph 3 mph 98% 0.00 in 0 W/m2
02:40 38.4 °F 37.9 °F 30.34 in West 2 mph 4 mph 98% 0.00 in 0 W/m2
02:50 38.1 °F 37.6 °F 30.33 in WSW 2 mph 4 mph 98% 0.00 in 0 W/m2
03:00 37.9 °F 37.4 °F 30.33 in WSW 2 mph 4 mph 98% 0.00 in 0 W/m2
03:10 37.8 °F 37.2 °F 30.33 in West 2 mph 5 mph 98% 0.00 in 0 W/m2
03:20 37.6 °F 37.1 °F 30.33 in WSW 2 mph 4 mph 98% 0.00 in 0 W/m2
03:30 37.4 °F 36.9 °F 30.33 in West 2 mph 5 mph 98% 0.00 in 0 W/m2
03:40 37.2 °F 36.7 °F 30.33 in Calm   5 mph 98% 0.00 in 0 W/m2
03:50 37 °F 36.5 °F 30.33 in WSW 2 mph 3 mph 98% 0.00 in 0 W/m2
04:00 36.7 °F 36.2 °F 30.33 in SW 1 mph 3 mph 98% 0.00 in 0 W/m2
04:10 36.6 °F 36.1 °F 30.33 in WSW 2 mph 3 mph 98% 0.00 in 0 W/m2
04:20 36.3 °F 35.8 °F 30.33 in WSW 1 mph 3 mph 98% 0.00 in 0 W/m2
04:30 36.1 °F 35.6 °F 30.33 in West 2 mph 3 mph 98% 0.00 in 0 W/m2
04:40 35.8 °F 35.3 °F 30.33 in WNW 3 mph 4 mph 98% 0.00 in 0 W/m2
04:50 35.4 °F 35.2 °F 30.33 in WNW 2 mph 4 mph 99% 0.00 in 0 W/m2
05:00 35.2 °F 35 °F 30.34 in WNW 1 mph 4 mph 99% 0.00 in 0 W/m2
05:10 34.9 °F 34.4 °F 30.34 in West 3 mph 6 mph 98% 0.00 in 0 W/m2
05:20 34.7 °F 34.4 °F 30.34 in West 2 mph 5 mph 99% 0.00 in 0 W/m2
05:30 34.4 °F 33.9 °F 30.34 in West 1 mph 3 mph 98% 0.00 in 0 W/m2
05:40 34 °F 33.5 °F 30.34 in Calm   3 mph 98% 0.00 in 0 W/m2
05:50 33.6 °F 33.1 °F 30.34 in WNW 1 mph 2 mph 98% 0.00 in 0 W/m2
06:00 33.4 °F 32.9 °F 30.34 in Calm   2 mph 98% 0.00 in 0 W/m2
06:10 33.1 °F 32.6 °F 30.35 in Calm   2 mph 98% 0.00 in 0 W/m2
06:20 32.9 °F 32.7 °F 30.35 in Calm   3 mph 99% 0.00 in 0 W/m2
06:30 32.5 °F 32.3 °F 30.35 in WNW 1 mph 2 mph 99% 0.00 in 0 W/m2
06:40 32.4 °F 32.1 °F 30.35 in WNW 1 mph 2 mph 99% 0.00 in 4 W/m2
06:50 32.4 °F 32.1 °F 30.35 in NW 1 mph 3 mph 99% 0.00 in 5 W/m2
07:00 32.4 °F 32.1 °F 30.36 in NW 1 mph 2 mph 99% 0.00 in 18 W/m2
07:10 32.2 °F 31.9 °F 30.36 in NNW 2 mph 3 mph 99% 0.00 in 27 W/m2
07:20 32.2 °F 31.9 °F 30.36 in WNW 1 mph 3 mph 99% 0.00 in 49 W/m2
07:30 32 °F 31.8 °F 30.37 in Calm   2 mph 99% 0.00 in 53 W/m2
07:40 32.2 °F 31.9 °F 30.37 in Calm   2 mph 99% 0.00 in 55 W/m2
07:50 32.2 °F 31.9 °F 30.37 in Calm   1 mph 99% 0.00 in 43 W/m2
08:00 32.2 °F 31.9 °F 30.37 in Calm   1 mph 99% 0.00 in 61 W/m2
08:10 32.4 °F 32.1 °F 30.37 in Calm   2 mph 99% 0.00 in 75 W/m2
08:20 32.5 °F 32.3 °F 30.37 in NW 1 mph 2 mph 99% 0.00 in 74 W/m2
08:30 32.8 °F 32.6 °F 30.37 in WNW 1 mph 2 mph 99% 0.00 in 66 W/m2
08:40 33.3 °F 33 °F 30.37 in WNW 1 mph 2 mph 99% 0.00 in 75 W/m2
08:50 33.6 °F 33.4 °F 30.37 in Calm   2 mph 99% 0.00 in 82 W/m2
09:00 34.3 °F 34 °F 30.37 in Calm   2 mph 99% 0.00 in 95 W/m2
09:10 34.7 °F 34.4 °F 30.37 in Calm   2 mph 99% 0.00 in 96 W/m2
09:20 35.1 °F 34.8 °F 30.37 in Calm   2 mph 99% 0.00 in 97 W/m2
09:30 35.5 °F 35.3 °F 30.37 in Calm   2 mph 99% 0.00 in 109 W/m2
09:40 36 °F 35.7 °F 30.37 in NNW 1 mph 5 mph 99% 0.00 in 164 W/m2
09:50 36.7 °F 36.4 °F 30.37 in NNW 1 mph 3 mph 99% 0.00 in 208 W/m2
Knjazevac, Serbia
Compliments of Weather Underground - 2 mb